Airfield :
LOGIN :

Register | Disclaimer

   EN    FR    IT 

 










Legend :    VFR   Marginal VFR   IFR   Intensive IFR   Very Intensive IFR
Visi :
Ceiling :
>= 8 km
>= 3000ft
5 to 8 km
1000 to 3000 ft
1500m to 5 km
500 to 1000 ft
800 to 1500m
200 to 500 ft
< 800m
< 200 ft
Symbols :   Thunderstorms  Fog  Heavy snow  Heavy precipitations  Wind > 20 kt
SIGMETs :     Misc.  Thunderstorms  Icing  Turbulence  Mountain Waves  Volcanic Ashes






- Airport Elevation : 1046 ft
- IATA code : NUE


EDDN - Nuremberg

CURRENT METAR :
  • 031020Z VRB05KT CAVOK 25/07 Q1006 NOSIG

EXPIRED METARs :
  • 030950Z VRB03KT CAVOK 25/06 Q1006 NOSIG
  • 030920Z 27005KT 230V310 CAVOK 25/07 Q1007 NOSIG
  • 030850Z VRB03KT CAVOK 24/07 Q1007 NOSIG
  • 030820Z VRB03KT CAVOK 23/08 Q1007 NOSIG
  • 030750Z VRB03KT CAVOK 22/09 Q1008 NOSIG

TAF TAF EDDN
Valid from the 03 at 06:00 until the 04 at 06:00 UTC


030500Z 0306/0406 12004KT CAVOK
BECMG 0309/0311 26005KT
PROB30
TEMPO 0313/0319 27020G35KT TSRA SCT070CB
BECMG 0317/0319 VRB03KT



MET'MAP, your aeronautical weather chart ! - Copyright ORBIFLY December 2007 - Disclaimer

ORBIFLY MET'MAP TEAM :

Programming & Development : Alexandra Zaïnal
Concept & original design : Baudouin d'Aumeries
Assistance for programming : Marc-Olivier Méhu
Technical & hardware support : Manuel Goepfert

Contact : metmap@orbifly.com




SOURCES & CREDITS :

   NOAA